createdAt,value
2019-03-05T12:10:21.997Z,10.17
2019-03-05T12:17:20.775Z,16.40
2019-03-05T12:19:50.397Z,7.35
2019-03-05T12:22:53.640Z,4.40
2019-03-05T12:27:06.361Z,17.52
2019-03-05T12:31:09.622Z,6.35
2019-03-05T12:33:39.916Z,6.72
2019-03-05T12:36:10.147Z,8.10
2019-03-05T12:38:40.373Z,7.47
2019-03-05T12:41:10.598Z,6.92
2019-03-05T12:45:26.491Z,49.40
2019-03-05T12:47:56.827Z,51.53
2019-03-05T12:50:29.855Z,59.33
2019-03-05T12:53:00.178Z,63.42
2019-03-05T12:55:30.688Z,66.07
2019-03-05T12:58:00.936Z,67.90
2019-03-05T13:00:33.185Z,64.97
2019-03-05T13:03:03.939Z,65.28
2019-03-05T13:08:59.135Z,62.53
2019-03-05T13:11:29.457Z,60.58
2019-03-05T13:14:07.283Z,60.90
2019-03-05T13:16:35.259Z,56.60
2019-03-05T13:19:05.374Z,56.73
2019-03-05T13:21:34.997Z,59.50
2019-03-05T13:24:05.303Z,56.70
2019-03-05T13:26:35.619Z,53.92
2019-03-05T13:29:05.858Z,50.38
2019-03-05T13:31:38.740Z,53.00
2019-03-05T13:34:08.115Z,51.18
2019-03-05T13:36:38.146Z,52.90
2019-03-05T13:39:08.307Z,52.00
2019-03-05T13:41:40.144Z,49.48
2019-03-05T13:44:27.899Z,49.15
2019-03-05T13:47:00.923Z,48.50
2019-03-05T13:49:42.348Z,52.23
2019-03-05T13:52:35.952Z,45.65
2019-03-05T13:55:28.013Z,49.98
2019-03-05T13:58:03.131Z,46.23
2019-03-05T14:00:33.260Z,43.17
2019-03-05T14:03:15.367Z,44.83
2019-03-05T14:05:54.591Z,45.90
2019-03-05T14:08:36.430Z,43.28
2019-03-05T14:11:06.744Z,43.40
2019-03-05T14:13:37.045Z,41.33
2019-03-05T14:16:09.047Z,44.38
2019-03-05T14:18:39.061Z,38.50
2019-03-05T14:21:08.863Z,40.67
2019-03-05T14:23:38.680Z,38.65
2019-03-05T14:26:08.484Z,39.55
2019-03-05T14:28:38.308Z,38.50
2019-03-05T14:31:08.156Z,35.35
2019-03-05T14:33:38.228Z,40.33
2019-03-05T14:36:08.317Z,37.70
2019-03-05T14:38:38.742Z,38.75
2019-03-05T14:41:08.538Z,34.40
2019-03-05T14:43:38.416Z,36.75
2019-03-05T14:46:08.218Z,34.70
2019-03-05T14:48:38.060Z,34.48
2019-03-05T14:51:08.209Z,32.03
2019-03-05T14:53:38.259Z,37.17
2019-03-05T14:56:08.141Z,35.43
2019-03-05T14:58:38.073Z,33.63
2019-03-05T15:01:08.112Z,32.88
2019-03-05T15:03:38.121Z,32.28
2019-03-05T15:06:08.055Z,32.28
2019-03-05T15:08:37.996Z,31.50
2019-03-05T15:11:08.076Z,31.48
2019-03-05T15:13:38.158Z,31.33
2019-03-05T15:16:08.287Z,29.55
2019-03-05T15:18:38.354Z,27.27
2019-03-05T15:21:08.230Z,26.40
2019-03-05T15:23:38.091Z,27.00
2019-03-05T15:26:07.908Z,27.65
2019-03-05T15:28:37.956Z,26.82
2019-03-05T15:31:08.043Z,27.17
2019-03-05T15:33:37.856Z,26.77
2019-03-05T15:36:07.908Z,24.32
2019-03-05T15:38:38.236Z,23.62
2019-03-05T15:41:08.562Z,24.85
2019-03-05T15:43:38.872Z,26.97
2019-03-05T15:46:09.206Z,28.02
2019-03-05T15:48:39.512Z,22.87
2019-03-05T15:51:09.778Z,22.73
2019-03-05T15:53:39.881Z,24.23
2019-03-05T15:56:09.961Z,27.77
2019-03-05T15:58:40.208Z,24.47
2019-03-05T16:01:18.749Z,23.83
2019-03-05T16:03:42.756Z,23.62
2019-03-05T16:06:14.046Z,24.57
2019-03-05T16:08:44.616Z,21.73
2019-03-05T16:11:14.862Z,23.98
2019-03-05T16:13:45.512Z,21.97
2019-03-05T16:16:18.358Z,19.95
2019-03-05T16:18:47.521Z,22.73
2019-03-05T16:21:17.569Z,23.12
2019-03-05T16:23:47.875Z,21.65
2019-03-05T16:26:18.691Z,21.42
2019-03-05T16:28:48.682Z,19.75
2019-03-05T16:31:26.211Z,19.42
2019-03-05T16:34:00.572Z,20.72
2019-03-05T16:36:32.449Z,20.82
2019-03-05T16:39:10.543Z,19.55
2019-03-05T16:41:59.497Z,19.55
2019-03-05T16:44:35.938Z,16.50
2019-03-05T16:47:23.680Z,20.02
2019-03-05T16:49:55.382Z,22.35
2019-03-05T16:52:45.025Z,18.87
2019-03-05T16:55:19.480Z,18.05
2019-03-05T16:57:54.351Z,18.52
2019-03-05T17:00:37.765Z,17.85
2019-03-05T17:03:09.268Z,18.17
2019-03-05T17:05:46.731Z,15.83
2019-03-05T17:08:24.227Z,16.65
2019-03-05T17:11:04.928Z,15.55
2019-03-05T17:13:35.254Z,15.80
2019-03-05T17:16:05.568Z,15.88
2019-03-05T17:18:35.833Z,17.95
2019-03-05T17:21:05.720Z,15.55
2019-03-05T17:23:35.600Z,15.78
2019-03-05T17:26:05.487Z,14.63
2019-03-05T17:28:35.607Z,18.32
2019-03-05T17:31:06.552Z,16.73
2019-03-05T17:33:36.875Z,16.87
2019-03-05T17:36:07.299Z,15.83
2019-03-05T17:38:37.636Z,15.05
2019-03-05T17:41:08.565Z,15.38
2019-03-05T17:43:39.083Z,14.63
2019-03-05T17:46:09.902Z,16.05
2019-03-05T17:48:40.149Z,14.70
2019-03-05T17:51:10.332Z,13.68
2019-03-05T17:53:40.456Z,17.60
2019-03-05T17:56:11.140Z,15.23
2019-03-05T17:58:41.459Z,12.50
2019-03-05T18:01:11.853Z,13.68
2019-03-05T18:03:42.439Z,14.43
2019-03-05T18:06:12.758Z,14.10
2019-03-05T18:08:43.016Z,16.42
2019-03-05T18:11:13.846Z,13.98
2019-03-05T18:13:44.352Z,13.58
2019-03-05T18:16:14.660Z,16.25
2019-03-05T18:18:44.967Z,14.93
2019-03-05T18:21:15.280Z,11.85
2019-03-05T18:23:45.593Z,14.30
2019-03-05T18:26:15.908Z,16.02
2019-03-05T18:28:46.222Z,13.00
2019-03-05T18:31:16.523Z,14.68
2019-03-05T18:33:46.592Z,14.95
2019-03-05T18:36:16.420Z,11.00
2019-03-05T18:38:46.468Z,15.88
2019-03-05T18:41:16.864Z,12.13
2019-03-05T18:43:47.343Z,10.68
2019-03-05T18:46:17.647Z,11.28
2019-03-05T18:48:48.288Z,11.93
2019-03-05T18:51:18.955Z,13.78
2019-03-05T18:53:49.113Z,11.60
2019-03-05T18:56:18.988Z,11.90
2019-03-05T18:58:50.295Z,14.20
2019-03-05T19:01:20.289Z,10.63
2019-03-05T19:03:50.332Z,10.23
2019-03-05T19:06:20.595Z,13.40
2019-03-05T19:08:50.579Z,9.93
2019-03-05T19:11:20.620Z,9.65
2019-03-05T19:13:50.959Z,11.45
2019-03-05T19:16:22.368Z,10.25
2019-03-05T19:18:52.612Z,10.85
2019-03-05T19:21:22.842Z,9.03
2019-03-05T19:23:52.828Z,10.65
2019-03-05T19:26:22.820Z,10.75
2019-03-05T19:28:53.391Z,11.83
2019-03-05T19:31:23.739Z,8.55
2019-03-05T19:33:54.060Z,11.20
2019-03-05T19:36:24.384Z,11.60
2019-03-05T19:38:54.619Z,10.10
2019-03-05T19:41:24.920Z,9.28
2019-03-05T19:43:55.216Z,9.43
2019-03-05T19:46:25.199Z,8.75
2019-03-05T19:48:55.324Z,11.45
2019-03-05T19:51:25.570Z,10.88
2019-03-05T19:53:55.794Z,8.63
2019-03-05T19:56:27.084Z,8.40
2019-03-05T19:58:57.305Z,7.65
2019-03-05T20:01:29.168Z,9.95
2019-03-05T20:03:59.538Z,8.45
2019-03-05T20:06:30.083Z,9.15
2019-03-05T20:09:00.321Z,9.00
2019-03-05T20:11:30.535Z,9.78
2019-03-05T20:14:00.534Z,11.20
2019-03-05T20:16:30.324Z,8.45
2019-03-05T20:19:00.358Z,9.88
2019-03-05T20:21:30.575Z,9.38
2019-03-05T20:24:00.552Z,9.28
2019-03-05T20:26:30.731Z,10.48
2019-03-05T20:29:02.274Z,7.70
2019-03-05T20:31:33.761Z,10.18
2019-03-05T20:34:03.980Z,8.08
2019-03-05T20:36:34.259Z,7.35
2019-03-05T20:39:04.887Z,10.93
2019-03-05T20:41:36.265Z,8.83
2019-03-05T20:44:06.768Z,8.15
2019-03-05T20:46:37.053Z,9.53
2019-03-05T20:49:07.331Z,9.05
2019-03-05T20:51:37.619Z,6.97
2019-03-05T20:54:08.200Z,8.73
2019-03-05T20:56:37.672Z,7.20
2019-03-05T20:59:07.468Z,6.10
2019-03-05T21:01:36.987Z,9.13
2019-03-05T21:04:08.043Z,8.73
2019-03-05T21:06:38.084Z,6.30
2019-03-05T21:09:14.640Z,9.98
2019-03-05T21:11:45.852Z,8.63
2019-03-05T21:14:16.542Z,6.90
2019-03-05T21:16:46.513Z,7.97
2019-03-05T21:19:16.536Z,5.97
2019-03-05T21:21:46.579Z,6.42
2019-03-05T21:24:16.672Z,7.92
2019-03-05T21:26:46.975Z,6.47
2019-03-05T21:29:16.945Z,7.20
2019-03-05T21:31:47.038Z,9.88
2019-03-05T21:34:17.385Z,7.05
2019-03-05T21:36:47.958Z,8.45
2019-03-05T21:39:18.237Z,7.60
2019-03-05T21:41:48.891Z,6.55
2019-03-05T21:44:18.935Z,8.40
2019-03-05T21:46:48.396Z,5.45
2019-03-05T21:49:18.613Z,8.40
2019-03-05T21:51:48.820Z,7.28
2019-03-05T21:54:19.104Z,8.45
2019-03-05T21:56:49.383Z,6.33
2019-03-05T21:59:19.407Z,6.75
2019-03-05T22:01:49.059Z,5.70
2019-03-05T22:04:18.712Z,5.80
2019-03-05T22:06:49.000Z,7.92
2019-03-05T22:09:19.293Z,8.15
2019-03-05T22:11:49.235Z,7.08
2019-03-05T22:14:19.521Z,9.10
2019-03-05T22:16:49.249Z,6.35
2019-03-05T22:19:19.466Z,7.97
2019-03-05T22:21:49.744Z,7.50
2019-03-05T22:24:19.467Z,7.33
2019-03-05T22:26:49.125Z,6.53
2019-03-05T22:29:19.416Z,7.70
2019-03-05T22:31:49.144Z,6.20
2019-03-05T22:34:19.248Z,5.70
2019-03-05T22:36:48.899Z,7.23
2019-03-05T22:39:18.631Z,7.30
2019-03-05T22:41:48.655Z,5.93
2019-03-05T22:44:18.318Z,6.22
2019-03-05T22:46:47.963Z,4.73
2019-03-05T22:49:17.691Z,5.67
2019-03-05T22:51:47.340Z,5.10
2019-03-05T22:54:16.996Z,5.33
2019-03-05T22:56:46.715Z,5.33
2019-03-05T22:59:16.398Z,6.37
2019-03-05T23:01:46.213Z,5.65
2019-03-05T23:04:16.607Z,6.53
2019-03-05T23:06:46.544Z,6.00
2019-03-05T23:09:17.112Z,6.00
2019-03-05T23:11:46.805Z,5.07
2019-03-05T23:14:16.481Z,5.60
2019-03-05T23:16:46.599Z,5.67
2019-03-05T23:19:17.599Z,5.10
2019-03-05T23:21:47.403Z,4.73
2019-03-05T23:24:17.127Z,5.63
2019-03-05T23:26:47.411Z,5.57
2019-03-05T23:29:18.416Z,6.23
2019-03-05T23:31:48.448Z,5.07
2019-03-05T23:34:18.625Z,5.30
2019-03-05T23:36:49.699Z,5.07
2019-03-05T23:39:19.555Z,5.27
2019-03-05T23:41:49.280Z,5.40
2019-03-05T23:44:18.936Z,5.33
2019-03-05T23:46:48.605Z,3.93
2019-03-05T23:49:18.247Z,5.17
2019-03-05T23:51:47.908Z,3.97
2019-03-05T23:54:17.554Z,5.23
2019-03-05T23:56:47.207Z,4.40
2019-03-05T23:59:16.859Z,4.20
